Terminal Aerodrome Forecast
Issued by NWS

Home | Current Version | Previous Version | Text Only | Print | Product List | Glossary On
Versions: 1 2 3 4 5 6 7 8 9 10 11 12 13 14 15 16 17 18 19 20
000
FTUS44 KLIX 211300 AAA
TAFMCB
TAF AMD
KMCB 211348Z 2114/2212 05004KT P6SM BKN020
     FM220100 12005KT P6SM SCT040
     FM220800 16005KT 1SM BR SCT020
     FM221000 17005KT 1SM BR BKN008=

USA.gov is the U.S. government's official web portal to all federal, state and local government web resources and services.